BEL26C SYCJ-SKBO
Flight info
| Callsign | BEL26C |
|---|---|
| Flight time | N/A |
| Altitude | 36000 |
| Route | UGVIR UP549 BNS UP533 KIKAS/N0440F240 W82 DOPLO DOPLO5E |
| Aircraft | A320/M-SDE3FGHIRWY/LB1 |
Departure
| Time | N/A |
|---|---|
| Airport | Cheddi Jagan International Airport (SYCJ) |
Arrival
| Time | 2026-05-01 08:26 |
|---|---|
| Airport | El Dorado International Airport (SKBO) |
| Time | Latitude | Longitude | Altitude | Speed | Heading |
|---|---|---|---|---|---|
| 2026-05-01 07:23 | 8.50347 | -69.78530 | 35896 ft | 440 kts | 283° |
| 2026-05-01 07:24 | 8.52688 | -69.87490 | 35900 ft | 439 kts | 283° |
| 2026-05-01 07:24 | 8.54246 | -69.93456 | 35898 ft | 439 kts | 283° |
| 2026-05-01 07:25 | 8.55794 | -69.99424 | 35903 ft | 439 kts | 283° |
| 2026-05-01 07:25 | 8.57344 | -70.05389 | 35904 ft | 439 kts | 283° |
| 2026-05-01 07:26 | 8.58899 | -70.11347 | 35909 ft | 438 kts | 283° |
| 2026-05-01 07:26 | 8.60135 | -70.17358 | 35917 ft | 437 kts | 271° |
| 2026-05-01 07:26 | 8.59954 | -70.20408 | 35920 ft | 435 kts | 259° |
| 2026-05-01 07:27 | 8.59145 | -70.23356 | 35910 ft | 435 kts | 248° |
| 2026-05-01 07:27 | 8.57758 | -70.26068 | 35908 ft | 436 kts | 237° |
| 2026-05-01 07:27 | 8.55853 | -70.28457 | 35905 ft | 438 kts | 229° |
| 2026-05-01 07:28 | 8.51714 | -70.32988 | 35906 ft | 439 kts | 229° |
| 2026-05-01 07:28 | 8.47574 | -70.37538 | 35906 ft | 440 kts | 229° |
| 2026-05-01 07:29 | 8.43426 | -70.42086 | 35907 ft | 440 kts | 229° |
| 2026-05-01 07:29 | 8.39266 | -70.46637 | 35917 ft | 440 kts | 229° |
| 2026-05-01 07:30 | 8.35113 | -70.51190 | 35920 ft | 441 kts | 229° |
| 2026-05-01 07:30 | 8.30956 | -70.55741 | 35921 ft | 441 kts | 229° |
| 2026-05-01 07:31 | 8.26801 | -70.60294 | 35927 ft | 441 kts | 229° |
| 2026-05-01 07:32 | 8.16381 | -70.71693 | 35929 ft | 442 kts | 229° |
| 2026-05-01 07:33 | 8.10116 | -70.78551 | 35929 ft | 443 kts | 229° |
| 2026-05-01 07:33 | 8.03845 | -70.85415 | 35933 ft | 444 kts | 229° |
| 2026-05-01 07:34 | 7.97552 | -70.92282 | 35930 ft | 445 kts | 229° |
| 2026-05-01 07:35 | 7.93356 | -70.96867 | 35930 ft | 445 kts | 229° |
| 2026-05-01 07:35 | 7.89155 | -71.01453 | 35933 ft | 445 kts | 229° |
| 2026-05-01 07:36 | 7.84945 | -71.06045 | 35932 ft | 446 kts | 229° |
| 2026-05-01 07:36 | 7.80739 | -71.10640 | 35927 ft | 446 kts | 229° |
| 2026-05-01 07:37 | 7.74420 | -71.17533 | 35924 ft | 446 kts | 229° |
| 2026-05-01 07:37 | 7.70913 | -71.21357 | 35927 ft | 447 kts | 229° |
| 2026-05-01 07:38 | 7.66008 | -71.26700 | 35926 ft | 447 kts | 229° |
| 2026-05-01 07:39 | 7.59678 | -71.33604 | 35921 ft | 447 kts | 229° |
| 2026-05-01 07:39 | 7.54024 | -71.39753 | 35925 ft | 447 kts | 229° |
| 2026-05-01 07:40 | 7.49797 | -71.44358 | 35925 ft | 447 kts | 229° |
| 2026-05-01 07:40 | 7.45575 | -71.48955 | 35923 ft | 447 kts | 229° |
| 2026-05-01 07:41 | 7.41349 | -71.53556 | 35923 ft | 447 kts | 229° |
| 2026-05-01 07:42 | 7.35014 | -71.60449 | 35924 ft | 447 kts | 229° |
| 2026-05-01 07:42 | 7.30785 | -71.65045 | 35926 ft | 447 kts | 229° |
| 2026-05-01 07:43 | 7.26560 | -71.69632 | 35923 ft | 447 kts | 229° |
| 2026-05-01 07:43 | 7.20231 | -71.76513 | 35923 ft | 446 kts | 229° |
| 2026-05-01 07:44 | 7.11773 | -71.85682 | 35917 ft | 447 kts | 229° |
| 2026-05-01 07:45 | 7.07550 | -71.90272 | 35915 ft | 447 kts | 229° |
| 2026-05-01 07:45 | 7.03325 | -71.94862 | 35911 ft | 447 kts | 229° |
| 2026-05-01 07:46 | 6.99202 | -71.99545 | 35917 ft | 446 kts | 232° |
| 2026-05-01 07:47 | 6.93550 | -72.06939 | 35939 ft | 447 kts | 234° |
| 2026-05-01 07:47 | 6.89778 | -72.11919 | 35966 ft | 447 kts | 233° |
| 2026-05-01 07:48 | 6.84007 | -72.19314 | 36028 ft | 448 kts | 233° |
| 2026-05-01 07:48 | 6.80135 | -72.24240 | 36049 ft | 449 kts | 233° |
| 2026-05-01 07:49 | 6.74350 | -72.31645 | 36070 ft | 449 kts | 233° |
| 2026-05-01 07:50 | 6.70461 | -72.36613 | 36076 ft | 449 kts | 233° |
| 2026-05-01 07:50 | 6.64691 | -72.43991 | 36076 ft | 449 kts | 233° |
| 2026-05-01 07:51 | 6.60804 | -72.48965 | 36069 ft | 449 kts | 233° |
| 2026-05-01 07:52 | 6.55007 | -72.56379 | 36056 ft | 450 kts | 233° |
| 2026-05-01 07:52 | 6.51140 | -72.61318 | 36043 ft | 449 kts | 233° |
| 2026-05-01 07:53 | 6.45363 | -72.68697 | 36032 ft | 449 kts | 233° |
| 2026-05-01 07:53 | 6.41496 | -72.73636 | 36024 ft | 449 kts | 233° |
| 2026-05-01 07:55 | 6.31816 | -72.85971 | 36004 ft | 449 kts | 233° |
| 2026-05-01 07:56 | 6.22133 | -72.98296 | 36006 ft | 449 kts | 233° |
| 2026-05-01 07:57 | 6.16334 | -73.05687 | 36008 ft | 449 kts | 233° |
| 2026-05-01 07:58 | 6.08603 | -73.15520 | 36008 ft | 448 kts | 233° |
| 2026-05-01 07:59 | 6.00886 | -73.25338 | 36010 ft | 447 kts | 233° |
| 2026-05-01 08:00 | 5.89317 | -73.40042 | 36012 ft | 446 kts | 233° |
| 2026-05-01 08:01 | 5.80825 | -73.49086 | 36018 ft | 450 kts | 219° |
| 2026-05-01 08:02 | 5.73275 | -73.54668 | 36032 ft | 449 kts | 219° |
| 2026-05-01 08:03 | 5.65731 | -73.60252 | 35936 ft | 448 kts | 219° |
| 2026-05-01 08:03 | 5.63220 | -73.62111 | 35694 ft | 447 kts | 219° |
| 2026-05-01 08:03 | 5.58208 | -73.65822 | 34797 ft | 450 kts | 219° |
| 2026-05-01 08:04 | 5.53141 | -73.69576 | 32876 ft | 456 kts | 218° |
| 2026-05-01 08:04 | 5.48004 | -73.73385 | 30783 ft | 463 kts | 216° |
| 2026-05-01 08:05 | 5.43268 | -73.77624 | 28333 ft | 452 kts | 229° |
| 2026-05-01 08:05 | 5.41456 | -73.80189 | 27154 ft | 450 kts | 238° |
| 2026-05-01 08:05 | 5.40048 | -73.83019 | 26008 ft | 456 kts | 246° |
| 2026-05-01 08:06 | 5.37977 | -73.89013 | 24100 ft | 448 kts | 249° |
| 2026-05-01 08:06 | 5.36064 | -73.94616 | 23448 ft | 408 kts | 249° |
| 2026-05-01 08:07 | 5.34226 | -73.99960 | 22928 ft | 402 kts | 249° |
| 2026-05-01 08:07 | 5.32413 | -74.05242 | 22408 ft | 398 kts | 249° |
| 2026-05-01 08:08 | 5.31511 | -74.07872 | 22061 ft | 398 kts | 249° |
| 2026-05-01 08:08 | 5.29715 | -74.13113 | 21004 ft | 395 kts | 249° |
| 2026-05-01 08:09 | 5.27940 | -74.18298 | 19986 ft | 385 kts | 249° |
| 2026-05-01 08:09 | 5.27075 | -74.20828 | 19215 ft | 381 kts | 249° |
| 2026-05-01 08:09 | 5.26217 | -74.23329 | 18646 ft | 377 kts | 249° |
| 2026-05-01 08:10 | 5.24529 | -74.28244 | 17622 ft | 362 kts | 249° |
| 2026-05-01 08:10 | 5.23473 | -74.33014 | 17545 ft | 351 kts | 268° |
| 2026-05-01 08:11 | 5.23802 | -74.37883 | 17540 ft | 350 kts | 273° |
| 2026-05-01 08:11 | 5.24180 | -74.42751 | 17514 ft | 349 kts | 273° |
| 2026-05-01 08:12 | 5.23896 | -74.47569 | 17515 ft | 346 kts | 252° |
| 2026-05-01 08:12 | 5.23089 | -74.49842 | 17507 ft | 345 kts | 247° |
| 2026-05-01 08:12 | 5.21394 | -74.54345 | 17505 ft | 345 kts | 247° |
| 2026-05-01 08:13 | 5.20552 | -74.56602 | 17496 ft | 345 kts | 247° |
| 2026-05-01 08:13 | 5.19608 | -74.58808 | 17499 ft | 343 kts | 238° |
| 2026-05-01 08:13 | 5.16571 | -74.62412 | 17493 ft | 338 kts | 220° |
| 2026-05-01 08:14 | 5.14857 | -74.64027 | 17493 ft | 338 kts | 221° |
| 2026-05-01 08:14 | 5.13146 | -74.65643 | 17499 ft | 338 kts | 220° |
| 2026-05-01 08:14 | 5.11435 | -74.67266 | 17497 ft | 338 kts | 221° |
| 2026-05-01 08:14 | 5.09722 | -74.68888 | 17496 ft | 338 kts | 219° |
| 2026-05-01 08:15 | 5.07846 | -74.70282 | 17496 ft | 334 kts | 206° |
| 2026-05-01 08:15 | 5.03532 | -74.71899 | 17500 ft | 331 kts | 194° |
| 2026-05-01 08:15 | 5.01332 | -74.72580 | 17497 ft | 331 kts | 193° |
| 2026-05-01 08:16 | 4.99082 | -74.72841 | 17493 ft | 325 kts | 172° |
| 2026-05-01 08:16 | 4.96927 | -74.72269 | 17503 ft | 320 kts | 152° |
| 2026-05-01 08:16 | 4.95131 | -74.70974 | 17321 ft | 320 kts | 133° |
| 2026-05-01 08:16 | 4.93930 | -74.69108 | 16877 ft | 319 kts | 111° |
| 2026-05-01 08:17 | 4.93467 | -74.66944 | 16437 ft | 320 kts | 96° |
| 2026-05-01 08:17 | 4.93281 | -74.64729 | 16034 ft | 319 kts | 96° |
| 2026-05-01 08:17 | 4.93097 | -74.62529 | 15646 ft | 316 kts | 96° |
| 2026-05-01 08:17 | 4.92909 | -74.60335 | 15274 ft | 316 kts | 96° |
| 2026-05-01 08:18 | 4.92722 | -74.58171 | 14870 ft | 308 kts | 96° |
| 2026-05-01 08:18 | 4.92415 | -74.54645 | 14160 ft | 304 kts | 96° |
| 2026-05-01 08:19 | 4.92048 | -74.50451 | 13439 ft | 300 kts | 96° |
| 2026-05-01 08:19 | 4.91865 | -74.48369 | 13085 ft | 299 kts | 96° |
| 2026-05-01 08:19 | 4.91684 | -74.46286 | 12789 ft | 298 kts | 96° |
| 2026-05-01 08:19 | 4.91455 | -74.44270 | 12702 ft | 282 kts | 106° |
| 2026-05-01 08:20 | 4.90609 | -74.42613 | 12620 ft | 258 kts | 127° |
| 2026-05-01 08:20 | 4.89509 | -74.41248 | 12413 ft | 248 kts | 129° |
| 2026-05-01 08:20 | 4.88437 | -74.39890 | 12098 ft | 250 kts | 127° |
| 2026-05-01 08:20 | 4.87387 | -74.38507 | 11793 ft | 248 kts | 127° |
| 2026-05-01 08:21 | 4.86363 | -74.37150 | 11685 ft | 239 kts | 127° |
| 2026-05-01 08:21 | 4.85384 | -74.35855 | 11721 ft | 229 kts | 128° |
| 2026-05-01 08:21 | 4.84436 | -74.34604 | 11750 ft | 224 kts | 129° |
| 2026-05-01 08:21 | 4.83501 | -74.33366 | 11752 ft | 219 kts | 127° |
| 2026-05-01 08:22 | 4.82593 | -74.32167 | 11808 ft | 208 kts | 127° |
| 2026-05-01 08:22 | 4.81748 | -74.31051 | 11631 ft | 194 kts | 128° |
| 2026-05-01 08:22 | 4.80957 | -74.30004 | 11453 ft | 186 kts | 124° |
| 2026-05-01 08:22 | 4.80180 | -74.28979 | 11232 ft | 181 kts | 128° |
| 2026-05-01 08:23 | 4.79438 | -74.27999 | 11029 ft | 171 kts | 127° |
| 2026-05-01 08:23 | 4.78737 | -74.27072 | 10834 ft | 164 kts | 127° |
| 2026-05-01 08:23 | 4.78055 | -74.26171 | 10662 ft | 158 kts | 127° |
| 2026-05-01 08:23 | 4.77390 | -74.25292 | 10523 ft | 161 kts | 127° |
| 2026-05-01 08:24 | 4.76711 | -74.24395 | 10294 ft | 158 kts | 128° |
| 2026-05-01 08:24 | 4.76051 | -74.23524 | 10115 ft | 156 kts | 127° |
| 2026-05-01 08:24 | 4.75395 | -74.22657 | 9911 ft | 154 kts | 127° |
| 2026-05-01 08:24 | 4.74748 | -74.21803 | 9718 ft | 155 kts | 128° |
| 2026-05-01 08:25 | 4.74092 | -74.20937 | 9482 ft | 155 kts | 127° |
| 2026-05-01 08:25 | 4.73448 | -74.20086 | 9280 ft | 153 kts | 127° |
| 2026-05-01 08:25 | 4.72800 | -74.19231 | 9004 ft | 155 kts | 127° |
| 2026-05-01 08:25 | 4.72147 | -74.18373 | 8751 ft | 155 kts | 126° |
| 2026-05-01 08:26 | 4.71490 | -74.17511 | 8548 ft | 157 kts | 125° |
| 2026-05-01 08:26 | 4.70841 | -74.16645 | 8367 ft | 154 kts | 122° |
| 2026-05-01 08:26 | 4.70300 | -74.15912 | 8362 ft | 84 kts | 124° |
| 2026-05-01 08:26 | 4.70071 | -74.15616 | 8363 ft | 18 kts | 127° |
| 2026-05-01 08:27 | 4.70052 | -74.15531 | 8362 ft | 12 kts | 53° |
| 2026-05-01 08:27 | 4.70121 | -74.15475 | 8363 ft | 13 kts | 33° |
| 2026-05-01 08:27 | 4.70167 | -74.15402 | 8363 ft | 13 kts | 98° |
| 2026-05-01 08:27 | 4.70115 | -74.15323 | 8364 ft | 14 kts | 128° |
| 2026-05-01 08:28 | 4.70054 | -74.15242 | 8364 ft | 15 kts | 127° |
| 2026-05-01 08:28 | 4.69989 | -74.15156 | 8364 ft | 16 kts | 127° |
| 2026-05-01 08:28 | 4.69920 | -74.15062 | 8364 ft | 17 kts | 126° |
| 2026-05-01 08:28 | 4.69863 | -74.14985 | 8364 ft | 0 kts | 127° |
| 2026-05-01 08:29 | 4.69857 | -74.14977 | 8364 ft | 5 kts | 124° |
| 2026-05-01 08:29 | 4.69820 | -74.14931 | 8364 ft | 12 kts | 132° |
| 2026-05-01 08:29 | 4.69764 | -74.14861 | 8364 ft | 16 kts | 127° |
| 2026-05-01 08:29 | 4.69684 | -74.14754 | 8364 ft | 21 kts | 126° |
| 2026-05-01 08:30 | 4.69611 | -74.14657 | 8364 ft | 18 kts | 127° |
| 2026-05-01 08:30 | 4.69535 | -74.14555 | 8364 ft | 19 kts | 126° |
| 2026-05-01 08:30 | 4.69455 | -74.14448 | 8365 ft | 20 kts | 129° |
| 2026-05-01 08:30 | 4.69383 | -74.14353 | 8365 ft | 16 kts | 127° |
| 2026-05-01 08:31 | 4.69317 | -74.14270 | 8365 ft | 14 kts | 127° |
| 2026-05-01 08:31 | 4.69302 | -74.14225 | 8365 ft | 5 kts | 37° |
| 2026-05-01 08:31 | 4.69334 | -74.14208 | 8365 ft | 6 kts | 34° |
| 2026-05-01 08:31 | 4.69367 | -74.14187 | 8365 ft | 4 kts | 33° |
| 2026-05-01 08:32 | 4.69368 | -74.14187 | 8365 ft | 0 kts | 33° |